sensor_id;sensor_type;location;lat;lon;timestamp;pressure;altitude;pressure_sealevel;temperature;humidity
72903;BME280;61047;43.282;28.014;2024-02-23T00:01:30;98969.19;;;8.57;57.56
72903;BME280;61047;43.282;28.014;2024-02-23T00:03:56;98976.81;;;8.60;56.63
72903;BME280;61047;43.282;28.014;2024-02-23T00:06:21;98969.88;;;8.59;56.29
72903;BME280;61047;43.282;28.014;2024-02-23T00:08:53;98969.31;;;8.55;56.88
72903;BME280;61047;43.282;28.014;2024-02-23T00:11:23;98961.53;;;8.53;56.64
72903;BME280;61047;43.282;28.014;2024-02-23T00:13:49;98965.31;;;8.51;57.19
72903;BME280;61047;43.282;28.014;2024-02-23T00:16:17;98955.16;;;8.46;56.65
72903;BME280;61047;43.282;28.014;2024-02-23T00:18:43;98947.81;;;8.40;56.60
72903;BME280;61047;43.282;28.014;2024-02-23T00:21:08;98943.34;;;8.41;56.31
72903;BME280;61047;43.282;28.014;2024-02-23T00:23:34;98940.72;;;8.41;56.08
72903;BME280;61047;43.282;28.014;2024-02-23T00:25:59;98943.47;;;8.39;55.68
72903;BME280;61047;43.282;28.014;2024-02-23T00:28:25;98938.31;;;8.38;55.95
72903;BME280;61047;43.282;28.014;2024-02-23T00:30:51;98941.78;;;8.38;56.03
72903;BME280;61047;43.282;28.014;2024-02-23T00:33:16;98933.16;;;8.36;56.00
72903;BME280;61047;43.282;28.014;2024-02-23T00:35:42;98939.84;;;8.30;57.05
72903;BME280;61047;43.282;28.014;2024-02-23T00:38:08;98935.41;;;8.21;57.97
72903;BME280;61047;43.282;28.014;2024-02-23T00:40:33;98933.56;;;8.31;57.63
72903;BME280;61047;43.282;28.014;2024-02-23T00:42:59;98930.56;;;8.26;57.13
72903;BME280;61047;43.282;28.014;2024-02-23T00:45:26;98931.22;;;8.28;56.90
72903;BME280;61047;43.282;28.014;2024-02-23T00:47:52;98929.69;;;8.26;56.96
72903;BME280;61047;43.282;28.014;2024-02-23T00:50:17;98922.22;;;8.21;57.10
72903;BME280;61047;43.282;28.014;2024-02-23T00:52:43;98920.53;;;8.20;56.83
72903;BME280;61047;43.282;28.014;2024-02-23T00:55:09;98915.25;;;8.20;57.46
72903;BME280;61047;43.282;28.014;2024-02-23T00:57:34;98913.88;;;8.16;57.59
72903;BME280;61047;43.282;28.014;2024-02-23T01:00:01;98908.31;;;8.19;56.74
72903;BME280;61047;43.282;28.014;2024-02-23T01:02:28;98908.16;;;8.21;56.81
72903;BME280;61047;43.282;28.014;2024-02-23T01:04:54;98909.16;;;8.20;56.47
72903;BME280;61047;43.282;28.014;2024-02-23T01:07:22;98912.78;;;8.19;56.67
72903;BME280;61047;43.282;28.014;2024-02-23T01:09:48;98903.16;;;8.18;56.19
72903;BME280;61047;43.282;28.014;2024-02-23T01:12:13;98906.50;;;8.20;55.98
72903;BME280;61047;43.282;28.014;2024-02-23T01:14:39;98902.22;;;8.19;56.06
72903;BME280;61047;43.282;28.014;2024-02-23T01:17:05;98901.34;;;8.18;56.29
72903;BME280;61047;43.282;28.014;2024-02-23T01:19:30;98889.03;;;8.19;56.22
72903;BME280;61047;43.282;28.014;2024-02-23T01:21:56;98892.50;;;8.19;55.85
72903;BME280;61047;43.282;28.014;2024-02-23T01:24:27;98884.41;;;8.21;57.81
72903;BME280;61047;43.282;28.014;2024-02-23T01:26:55;98883.34;;;8.14;57.45
72903;BME280;61047;43.282;28.014;2024-02-23T01:29:21;98878.72;;;8.16;57.08
72903;BME280;61047;43.282;28.014;2024-02-23T01:31:48;98878.88;;;8.14;57.41
72903;BME280;61047;43.282;28.014;2024-02-23T01:34:13;98875.56;;;8.22;57.44
72903;BME280;61047;43.282;28.014;2024-02-23T01:36:39;98866.53;;;8.24;57.55
72903;BME280;61047;43.282;28.014;2024-02-23T01:39:04;98857.78;;;8.24;57.13
72903;BME280;61047;43.282;28.014;2024-02-23T01:41:30;98856.91;;;8.23;56.78
72903;BME280;61047;43.282;28.014;2024-02-23T01:43:56;98850.69;;;8.24;56.77
72903;BME280;61047;43.282;28.014;2024-02-23T01:46:21;98843.06;;;8.21;57.22
72903;BME280;61047;43.282;28.014;2024-02-23T01:48:47;98845.69;;;8.21;57.17
72903;BME280;61047;43.282;28.014;2024-02-23T01:51:13;98840.25;;;8.23;56.24
72903;BME280;61047;43.282;28.014;2024-02-23T01:53:38;98844.44;;;8.25;56.02
72903;BME280;61047;43.282;28.014;2024-02-23T01:56:04;98845.94;;;8.28;55.97
72903;BME280;61047;43.282;28.014;2024-02-23T01:58:30;98838.75;;;8.30;55.55
72903;BME280;61047;43.282;28.014;2024-02-23T02:00:56;98838.88;;;8.28;56.02
72903;BME280;61047;43.282;28.014;2024-02-23T02:03:21;98838.56;;;8.31;55.82
72903;BME280;61047;43.282;28.014;2024-02-23T02:05:47;98839.44;;;8.32;55.50
72903;BME280;61047;43.282;28.014;2024-02-23T02:08:15;98837.91;;;8.29;57.16
72903;BME280;61047;43.282;28.014;2024-02-23T02:10:40;98835.00;;;8.23;57.37
72903;BME280;61047;43.282;28.014;2024-02-23T02:13:07;98835.41;;;8.28;57.37
72903;BME280;61047;43.282;28.014;2024-02-23T02:15:34;98838.88;;;8.28;56.87
72903;BME280;61047;43.282;28.014;2024-02-23T02:17:59;98842.91;;;8.32;56.73
72903;BME280;61047;43.282;28.014;2024-02-23T02:20:25;98844.56;;;8.33;57.08
72903;BME280;61047;43.282;28.014;2024-02-23T02:22:53;98846.50;;;8.31;57.14
72903;BME280;61047;43.282;28.014;2024-02-23T02:25:19;98851.94;;;8.30;56.97
72903;BME280;61047;43.282;28.014;2024-02-23T02:27:45;98850.94;;;8.31;57.47
72903;BME280;61047;43.282;28.014;2024-02-23T02:30:11;98844.56;;;8.33;57.67
72903;BME280;61047;43.282;28.014;2024-02-23T02:32:37;98854.81;;;8.37;56.70
72903;BME280;61047;43.282;28.014;2024-02-23T02:35:02;98858.16;;;8.39;55.97
72903;BME280;61047;43.282;28.014;2024-02-23T02:37:28;98857.91;;;8.42;56.45
72903;BME280;61047;43.282;28.014;2024-02-23T02:39:53;98848.03;;;8.44;56.47
72903;BME280;61047;43.282;28.014;2024-02-23T02:42:19;98852.22;;;8.46;56.45
72903;BME280;61047;43.282;28.014;2024-02-23T02:44:44;98837.06;;;8.48;55.90
72903;BME280;61047;43.282;28.014;2024-02-23T02:47:10;98842.22;;;8.50;56.22
72903;BME280;61047;43.282;28.014;2024-02-23T02:49:36;98837.78;;;8.50;55.97
72903;BME280;61047;43.282;28.014;2024-02-23T02:52:01;98831.50;;;8.51;56.08
72903;BME280;61047;43.282;28.014;2024-02-23T02:54:27;98830.69;;;8.51;56.28
72903;BME280;61047;43.282;28.014;2024-02-23T02:56:53;98822.75;;;8.51;55.53
72903;BME280;61047;43.282;28.014;2024-02-23T02:59:20;98823.75;;;8.50;56.11
72903;BME280;61047;43.282;28.014;2024-02-23T03:01:45;98818.31;;;8.51;55.34
72903;BME280;61047;43.282;28.014;2024-02-23T03:04:12;98820.25;;;8.49;55.75
72903;BME280;61047;43.282;28.014;2024-02-23T03:06:38;98823.88;;;8.48;55.72
72903;BME280;61047;43.282;28.014;2024-02-23T03:09:03;98833.03;;;8.54;56.36
72903;BME280;61047;43.282;28.014;2024-02-23T03:11:30;98833.03;;;8.44;57.21
72903;BME280;61047;43.282;28.014;2024-02-23T03:13:55;98836.13;;;8.40;56.73
72903;BME280;61047;43.282;28.014;2024-02-23T03:16:21;98841.94;;;8.43;56.81
72903;BME280;61047;43.282;28.014;2024-02-23T03:18:51;98845.69;;;8.41;56.84
72903;BME280;61047;43.282;28.014;2024-02-23T03:21:17;98840.81;;;8.36;56.84
72903;BME280;61047;43.282;28.014;2024-02-23T03:23:43;98840.25;;;8.32;57.15
72903;BME280;61047;43.282;28.014;2024-02-23T03:26:10;98839.69;;;8.29;57.83
72903;BME280;61047;43.282;28.014;2024-02-23T03:28:35;98851.09;;;8.29;57.11
72903;BME280;61047;43.282;28.014;2024-02-23T03:31:01;98838.88;;;8.28;57.84
72903;BME280;61047;43.282;28.014;2024-02-23T03:33:27;98841.66;;;8.27;57.70
72903;BME280;61047;43.282;28.014;2024-02-23T03:35:52;98831.09;;;8.27;56.50
72903;BME280;61047;43.282;28.014;2024-02-23T03:38:18;98837.22;;;8.27;56.45
72903;BME280;61047;43.282;28.014;2024-02-23T03:40:44;98823.19;;;8.27;56.42
72903;BME280;61047;43.282;28.014;2024-02-23T03:43:09;98821.22;;;8.29;56.67
72903;BME280;61047;43.282;28.014;2024-02-23T03:45:35;98821.22;;;8.29;56.93
72903;BME280;61047;43.282;28.014;2024-02-23T03:48:00;98808.88;;;8.29;56.20
72903;BME280;61047;43.282;28.014;2024-02-23T03:50:29;98815.69;;;8.32;56.25
72903;BME280;61047;43.282;28.014;2024-02-23T03:52:54;98807.47;;;8.35;57.15
72903;BME280;61047;43.282;28.014;2024-02-23T03:55:20;98808.44;;;8.34;57.33
72903;BME280;61047;43.282;28.014;2024-02-23T03:57:45;98806.50;;;8.36;57.76
72903;BME280;61047;43.282;28.014;2024-02-23T04:00:11;98805.25;;;8.30;58.04
72903;BME280;61047;43.282;28.014;2024-02-23T04:02:38;98806.78;;;8.33;57.68
72903;BME280;61047;43.282;28.014;2024-02-23T04:05:03;98804.84;;;8.35;57.05
72903;BME280;61047;43.282;28.014;2024-02-23T04:07:29;98811.22;;;8.32;57.86
72903;BME280;61047;43.282;28.014;2024-02-23T04:09:55;98811.94;;;8.35;57.17
72903;BME280;61047;43.282;28.014;2024-02-23T04:12:21;98810.25;;;8.33;57.25
72903;BME280;61047;43.282;28.014;2024-02-23T04:14:46;98800.38;;;8.36;57.28
72903;BME280;61047;43.282;28.014;2024-02-23T04:17:17;98798.44;;;8.38;57.78
72903;BME280;61047;43.282;28.014;2024-02-23T04:19:44;98805.66;;;8.36;56.96
72903;BME280;61047;43.282;28.014;2024-02-23T04:22:09;98802.03;;;8.37;56.54
72903;BME280;61047;43.282;28.014;2024-02-23T04:24:38;98799.28;;;8.38;56.90
72903;BME280;61047;43.282;28.014;2024-02-23T04:27:05;98791.50;;;8.37;57.30
72903;BME280;61047;43.282;28.014;2024-02-23T04:29:31;98792.34;;;8.37;56.71
72903;BME280;61047;43.282;28.014;2024-02-23T04:31:57;98788.84;;;8.37;56.89
72903;BME280;61047;43.282;28.014;2024-02-23T04:34:23;98800.25;;;8.37;56.56
72903;BME280;61047;43.282;28.014;2024-02-23T04:36:49;98801.09;;;8.38;56.35
72903;BME280;61047;43.282;28.014;2024-02-23T04:39:14;98806.63;;;8.44;56.78
72903;BME280;61047;43.282;28.014;2024-02-23T04:41:40;98809.84;;;8.38;57.58
72903;BME280;61047;43.282;28.014;2024-02-23T04:44:05;98805.53;;;8.37;57.68
72903;BME280;61047;43.282;28.014;2024-02-23T04:46:31;98810.81;;;8.37;57.55
72903;BME280;61047;43.282;28.014;2024-02-23T04:48:57;98806.66;;;8.35;56.73
72903;BME280;61047;43.282;28.014;2024-02-23T04:51:22;98807.31;;;8.37;56.43
72903;BME280;61047;43.282;28.014;2024-02-23T04:53:49;98814.28;;;8.38;56.62
72903;BME280;61047;43.282;28.014;2024-02-23T04:56:15;98814.16;;;8.39;56.41
72903;BME280;61047;43.282;28.014;2024-02-23T04:58:40;98817.66;;;8.40;56.57
72903;BME280;61047;43.282;28.014;2024-02-23T05:01:08;98813.03;;;8.42;55.78
72903;BME280;61047;43.282;28.014;2024-02-23T05:03:33;98807.75;;;8.42;56.84
72903;BME280;61047;43.282;28.014;2024-02-23T05:05:59;98812.91;;;8.43;55.95
72903;BME280;61047;43.282;28.014;2024-02-23T05:08:25;98803.59;;;8.49;56.41
72903;BME280;61047;43.282;28.014;2024-02-23T05:10:52;98815.81;;;8.50;57.09
72903;BME280;61047;43.282;28.014;2024-02-23T05:13:19;98818.31;;;8.51;57.79
72903;BME280;61047;43.282;28.014;2024-02-23T05:15:45;98809.53;;;8.61;57.31
72903;BME280;61047;43.282;28.014;2024-02-23T05:18:11;98816.59;;;8.70;57.30
72903;BME280;61047;43.282;28.014;2024-02-23T05:20:36;98812.69;;;8.74;57.05
72903;BME280;61047;43.282;28.014;2024-02-23T05:23:02;98815.72;;;8.79;56.75
72903;BME280;61047;43.282;28.014;2024-02-23T05:25:28;98819.16;;;8.89;56.60
72903;BME280;61047;43.282;28.014;2024-02-23T05:27:53;98823.88;;;8.95;56.53
72903;BME280;61047;43.282;28.014;2024-02-23T05:30:19;98811.16;;;9.09;56.21
72903;BME280;61047;43.282;28.014;2024-02-23T05:32:44;98819.16;;;9.17;56.17
72903;BME280;61047;43.282;28.014;2024-02-23T05:35:10;98827.84;;;9.37;54.64
72903;BME280;61047;43.282;28.014;2024-02-23T05:37:36;98827.28;;;9.61;54.29
72903;BME280;61047;43.282;28.014;2024-02-23T05:40:03;98826.47;;;9.78;54.38
72903;BME280;61047;43.282;28.014;2024-02-23T05:42:32;98826.47;;;9.96;53.42
72903;BME280;61047;43.282;28.014;2024-02-23T05:44:58;98822.94;;;10.14;53.02
72903;BME280;61047;43.282;28.014;2024-02-23T05:47:23;98818.28;;;10.43;52.59
72903;BME280;61047;43.282;28.014;2024-02-23T05:49:50;98823.88;;;10.66;52.26
72903;BME280;61047;43.282;28.014;2024-02-23T05:52:15;98822.09;;;10.75;52.34
72903;BME280;61047;43.282;28.014;2024-02-23T05:54:41;98831.13;;;10.90;51.78
72903;BME280;61047;43.282;28.014;2024-02-23T05:57:07;98831.69;;;11.02;51.69
72903;BME280;61047;43.282;28.014;2024-02-23T05:59:32;98841.16;;;11.13;51.27
72903;BME280;61047;43.282;28.014;2024-02-23T06:01:58;98836.56;;;11.23;51.29
72903;BME280;61047;43.282;28.014;2024-02-23T06:04:24;98826.81;;;11.24;51.19
72903;BME280;61047;43.282;28.014;2024-02-23T06:06:49;98827.81;;;11.31;51.43
72903;BME280;61047;43.282;28.014;2024-02-23T06:09:15;98828.66;;;11.31;52.12
72903;BME280;61047;43.282;28.014;2024-02-23T06:11:41;98830.19;;;11.42;52.35
72903;BME280;61047;43.282;28.014;2024-02-23T06:14:07;98833.91;;;11.57;52.40
72903;BME280;61047;43.282;28.014;2024-02-23T06:16:33;98830.34;;;12.08;52.00
72903;BME280;61047;43.282;28.014;2024-02-23T06:18:58;98835.47;;;12.50;51.60
72903;BME280;61047;43.282;28.014;2024-02-23T06:21:24;98838.03;;;13.07;51.49
72903;BME280;61047;43.282;28.014;2024-02-23T06:23:50;98825.50;;;13.64;50.03
72903;BME280;61047;43.282;28.014;2024-02-23T06:26:15;98818.91;;;14.06;49.30
72903;BME280;61047;43.282;28.014;2024-02-23T06:28:41;98820.91;;;14.41;48.86
72903;BME280;61047;43.282;28.014;2024-02-23T06:31:07;98820.63;;;14.36;48.62
72903;BME280;61047;43.282;28.014;2024-02-23T06:33:33;98824.84;;;14.31;48.92
72903;BME280;61047;43.282;28.014;2024-02-23T06:35:59;98828.63;;;14.36;48.52
72903;BME280;61047;43.282;28.014;2024-02-23T06:38:24;98830.09;;;14.39;49.28
72903;BME280;61047;43.282;28.014;2024-02-23T06:40:51;98826.25;;;14.79;48.10
72903;BME280;61047;43.282;28.014;2024-02-23T06:43:16;98828.09;;;15.74;46.61
72903;BME280;61047;43.282;28.014;2024-02-23T06:45:42;98826.75;;;16.22;45.52
72903;BME280;61047;43.282;28.014;2024-02-23T06:48:07;98827.88;;;16.62;44.63
72903;BME280;61047;43.282;28.014;2024-02-23T06:50:33;98816.16;;;16.13;45.00
72903;BME280;61047;43.282;28.014;2024-02-23T06:52:59;98825.88;;;15.93;45.91
72903;BME280;61047;43.282;28.014;2024-02-23T06:55:25;98820.25;;;15.88;45.84
72903;BME280;61047;43.282;28.014;2024-02-23T06:57:51;98821.00;;;15.82;46.14
72903;BME280;61047;43.282;28.014;2024-02-23T07:00:16;98821.66;;;15.84;46.00
72903;BME280;61047;43.282;28.014;2024-02-23T07:02:42;98820.00;;;15.68;46.63
72903;BME280;61047;43.282;28.014;2024-02-23T07:05:08;98814.53;;;15.40;47.22
72903;BME280;61047;43.282;28.014;2024-02-23T07:07:34;98815.69;;;15.30;47.80
72903;BME280;61047;43.282;28.014;2024-02-23T07:09:59;98811.44;;;15.21;47.97
72903;BME280;61047;43.282;28.014;2024-02-23T07:12:25;98817.91;;;15.12;48.18
72903;BME280;61047;43.282;28.014;2024-02-23T07:14:55;98816.03;;;15.27;48.10
72903;BME280;61047;43.282;28.014;2024-02-23T07:17:21;98823.41;;;15.25;48.06
72903;BME280;61047;43.282;28.014;2024-02-23T07:19:47;98816.13;;;15.34;47.90
72903;BME280;61047;43.282;28.014;2024-02-23T07:22:13;98808.00;;;15.42;47.78
72903;BME280;61047;43.282;28.014;2024-02-23T07:24:39;98811.53;;;15.79;47.04
72903;BME280;61047;43.282;28.014;2024-02-23T07:27:05;98811.72;;;16.21;46.01
72903;BME280;61047;43.282;28.014;2024-02-23T07:29:31;98809.50;;;16.24;45.77
72903;BME280;61047;43.282;28.014;2024-02-23T07:31:57;98816.69;;;16.24;45.82
72903;BME280;61047;43.282;28.014;2024-02-23T07:34:22;98818.66;;;16.15;45.76
72903;BME280;61047;43.282;28.014;2024-02-23T07:36:51;98818.09;;;16.19;45.92
72903;BME280;61047;43.282;28.014;2024-02-23T07:39:16;98811.41;;;16.30;45.81
72903;BME280;61047;43.282;28.014;2024-02-23T07:41:42;98822.38;;;16.70;45.08
72903;BME280;61047;43.282;28.014;2024-02-23T07:44:08;98815.25;;;17.12;44.51
72903;BME280;61047;43.282;28.014;2024-02-23T07:46:34;98818.28;;;17.44;44.02
72903;BME280;61047;43.282;28.014;2024-02-23T07:48:59;98822.19;;;17.41;43.79
72903;BME280;61047;43.282;28.014;2024-02-23T07:51:25;98825.91;;;17.40;43.83
72903;BME280;61047;43.282;28.014;2024-02-23T07:53:51;98825.41;;;17.71;43.52
72903;BME280;61047;43.282;28.014;2024-02-23T07:56:16;98819.78;;;18.28;42.35
72903;BME280;61047;43.282;28.014;2024-02-23T07:58:42;98822.03;;;18.57;41.80
72903;BME280;61047;43.282;28.014;2024-02-23T08:01:08;98821.47;;;19.34;40.76
72903;BME280;61047;43.282;28.014;2024-02-23T08:03:33;98819.22;;;20.14;39.31
72903;BME280;61047;43.282;28.014;2024-02-23T08:05:59;98811.28;;;20.76;38.01
72903;BME280;61047;43.282;28.014;2024-02-23T08:08:26;98809.69;;;21.79;36.96
72903;BME280;61047;43.282;28.014;2024-02-23T08:10:53;98803.19;;;22.52;35.77
72903;BME280;61047;43.282;28.014;2024-02-23T08:13:19;98806.50;;;22.89;34.07
72903;BME280;61047;43.282;28.014;2024-02-23T08:15:46;98794.94;;;23.29;33.55
72903;BME280;61047;43.282;28.014;2024-02-23T08:18:12;98795.19;;;23.56;33.49
72903;BME280;61047;43.282;28.014;2024-02-23T08:20:37;98798.09;;;23.78;33.40
72903;BME280;61047;43.282;28.014;2024-02-23T08:23:03;98796.56;;;23.71;33.56
72903;BME280;61047;43.282;28.014;2024-02-23T08:25:28;98798.78;;;24.02;32.13
72903;BME280;61047;43.282;28.014;2024-02-23T08:27:55;98795.59;;;24.06;33.36
72903;BME280;61047;43.282;28.014;2024-02-23T08:30:21;98797.72;;;24.03;32.59
72903;BME280;61047;43.282;28.014;2024-02-23T08:32:47;98798.94;;;23.67;33.23
72903;BME280;61047;43.282;28.014;2024-02-23T08:35:12;98797.91;;;23.04;33.73
72903;BME280;61047;43.282;28.014;2024-02-23T08:37:39;98804.97;;;22.82;34.52
72903;BME280;61047;43.282;28.014;2024-02-23T08:40:05;98805.56;;;22.60;35.17
72903;BME280;61047;43.282;28.014;2024-02-23T08:42:31;98812.13;;;22.64;34.96
72903;BME280;61047;43.282;28.014;2024-02-23T08:44:57;98810.59;;;22.45;35.05
72903;BME280;61047;43.282;28.014;2024-02-23T08:47:23;98814.97;;;22.58;34.94
72903;BME280;61047;43.282;28.014;2024-02-23T08:49:48;98817.53;;;22.53;35.40
72903;BME280;61047;43.282;28.014;2024-02-23T08:52:14;98818.25;;;22.71;35.14
72903;BME280;61047;43.282;28.014;2024-02-23T08:54:39;98832.09;;;22.87;34.53
72903;BME280;61047;43.282;28.014;2024-02-23T08:57:05;98823.03;;;23.17;34.13
72903;BME280;61047;43.282;28.014;2024-02-23T08:59:30;98827.47;;;23.34;34.36
72903;BME280;61047;43.282;28.014;2024-02-23T09:01:56;98824.59;;;23.53;34.23
72903;BME280;61047;43.282;28.014;2024-02-23T09:04:22;98824.69;;;23.70;33.60
72903;BME280;61047;43.282;28.014;2024-02-23T09:06:49;98820.53;;;24.08;34.16
72903;BME280;61047;43.282;28.014;2024-02-23T09:09:15;98819.53;;;24.14;33.09
72903;BME280;61047;43.282;28.014;2024-02-23T09:11:40;98824.66;;;24.61;32.82
72903;BME280;61047;43.282;28.014;2024-02-23T09:14:06;98832.34;;;25.03;31.66
72903;BME280;61047;43.282;28.014;2024-02-23T09:16:32;98820.38;;;25.38;30.56
72903;BME280;61047;43.282;28.014;2024-02-23T09:18:58;98828.00;;;25.85;30.34
72903;BME280;61047;43.282;28.014;2024-02-23T09:21:24;98828.09;;;25.95;30.48
72903;BME280;61047;43.282;28.014;2024-02-23T09:23:50;98832.44;;;26.23;29.48
72903;BME280;61047;43.282;28.014;2024-02-23T09:26:15;98820.03;;;26.65;28.85
72903;BME280;61047;43.282;28.014;2024-02-23T09:28:41;98817.03;;;27.09;28.35
72903;BME280;61047;43.282;28.014;2024-02-23T09:31:07;98814.50;;;27.44;27.75
72903;BME280;61047;43.282;28.014;2024-02-23T09:33:33;98811.84;;;27.60;27.40
72903;BME280;61047;43.282;28.014;2024-02-23T09:35:58;98801.28;;;27.79;27.80
72903;BME280;61047;43.282;28.014;2024-02-23T09:38:24;98802.47;;;28.03;26.87
72903;BME280;61047;43.282;28.014;2024-02-23T09:40:53;98794.03;;;28.25;26.98
72903;BME280;61047;43.282;28.014;2024-02-23T09:43:22;98789.38;;;28.41;26.28
72903;BME280;61047;43.282;28.014;2024-02-23T09:45:50;98786.66;;;28.26;26.25
72903;BME280;61047;43.282;28.014;2024-02-23T09:48:16;98794.84;;;28.36;26.76
72903;BME280;61047;43.282;28.014;2024-02-23T09:50:44;98791.28;;;28.71;25.72
72903;BME280;61047;43.282;28.014;2024-02-23T09:53:10;98789.88;;;29.10;26.08
72903;BME280;61047;43.282;28.014;2024-02-23T09:55:36;98790.69;;;28.95;25.37
72903;BME280;61047;43.282;28.014;2024-02-23T09:58:02;98783.06;;;29.07;25.64
72903;BME280;61047;43.282;28.014;2024-02-23T10:00:28;98788.41;;;29.28;25.88
72903;BME280;61047;43.282;28.014;2024-02-23T10:02:55;98786.75;;;29.37;25.71
72903;BME280;61047;43.282;28.014;2024-02-23T10:05:22;98785.13;;;29.36;25.51
72903;BME280;61047;43.282;28.014;2024-02-23T10:07:48;98783.09;;;29.62;25.36
72903;BME280;61047;43.282;28.014;2024-02-23T10:10:14;98783.53;;;29.79;24.60
72903;BME280;61047;43.282;28.014;2024-02-23T10:12:40;98779.19;;;30.18;24.25
72903;BME280;61047;43.282;28.014;2024-02-23T10:15:06;98781.06;;;29.88;24.84
72903;BME280;61047;43.282;28.014;2024-02-23T10:17:31;98783.06;;;30.12;24.79
72903;BME280;61047;43.282;28.014;2024-02-23T10:19:58;98771.06;;;30.07;25.09
72903;BME280;61047;43.282;28.014;2024-02-23T10:22:24;98772.22;;;30.01;24.23
72903;BME280;61047;43.282;28.014;2024-02-23T10:24:50;98767.97;;;30.24;24.74
72903;BME280;61047;43.282;28.014;2024-02-23T10:27:16;98759.47;;;30.26;24.85
72903;BME280;61047;43.282;28.014;2024-02-23T10:29:42;98761.63;;;30.87;24.05
72903;BME280;61047;43.282;28.014;2024-02-23T10:32:08;98760.00;;;30.86;24.06
72903;BME280;61047;43.282;28.014;2024-02-23T10:34:35;98759.97;;;31.34;22.76
72903;BME280;61047;43.282;28.014;2024-02-23T10:37:02;98759.22;;;31.53;22.91
72903;BME280;61047;43.282;28.014;2024-02-23T10:39:31;98757.13;;;30.96;22.91
72903;BME280;61047;43.282;28.014;2024-02-23T10:41:57;98758.63;;;31.32;23.21
72903;BME280;61047;43.282;28.014;2024-02-23T10:44:25;98750.13;;;31.33;22.77
72903;BME280;61047;43.282;28.014;2024-02-23T10:46:52;98755.00;;;30.93;23.03
72903;BME280;61047;43.282;28.014;2024-02-23T10:49:17;98753.31;;;30.98;22.88
72903;BME280;61047;43.282;28.014;2024-02-23T10:51:46;98751.56;;;31.07;22.25
72903;BME280;61047;43.282;28.014;2024-02-23T10:54:13;98750.91;;;30.91;23.71
72903;BME280;61047;43.282;28.014;2024-02-23T10:56:39;98749.38;;;30.85;22.94
72903;BME280;61047;43.282;28.014;2024-02-23T10:59:06;98758.69;;;31.27;22.78
72903;BME280;61047;43.282;28.014;2024-02-23T11:01:33;98758.84;;;30.92;22.87
72903;BME280;61047;43.282;28.014;2024-02-23T11:03:59;98758.25;;;31.20;22.91
72903;BME280;61047;43.282;28.014;2024-02-23T11:06:28;98759.91;;;30.67;22.99
72903;BME280;61047;43.282;28.014;2024-02-23T11:08:53;98750.34;;;30.94;23.32
72903;BME280;61047;43.282;28.014;2024-02-23T11:11:29;98748.94;;;30.96;23.50
72903;BME280;61047;43.282;28.014;2024-02-23T11:13:57;98745.63;;;31.00;22.66
72903;BME280;61047;43.282;28.014;2024-02-23T11:16:23;98737.50;;;31.37;22.12
72903;BME280;61047;43.282;28.014;2024-02-23T11:18:48;98745.91;;;32.17;22.23
72903;BME280;61047;43.282;28.014;2024-02-23T11:21:14;98739.28;;;32.69;22.67
72903;BME280;61047;43.282;28.014;2024-02-23T11:23:40;98740.22;;;32.46;21.79
72903;BME280;61047;43.282;28.014;2024-02-23T11:26:09;98740.50;;;32.31;21.52
72903;BME280;61047;43.282;28.014;2024-02-23T11:31:15;98733.09;;;31.60;22.13
72903;BME280;61047;43.282;28.014;2024-02-23T11:33:47;98730.69;;;31.35;22.34
72903;BME280;61047;43.282;28.014;2024-02-23T11:36:21;98728.25;;;30.61;23.46
72903;BME280;61047;43.282;28.014;2024-02-23T11:38:47;98731.69;;;30.48;23.92
72903;BME280;61047;43.282;28.014;2024-02-23T11:41:12;98721.06;;;30.41;23.40
72903;BME280;61047;43.282;28.014;2024-02-23T11:43:40;98727.59;;;30.45;23.69
72903;BME280;61047;43.282;28.014;2024-02-23T11:46:06;98721.84;;;30.47;23.78
72903;BME280;61047;43.282;28.014;2024-02-23T11:48:32;98718.47;;;30.55;23.91
72903;BME280;61047;43.282;28.014;2024-02-23T11:50:58;98724.47;;;30.57;23.54
72903;BME280;61047;43.282;28.014;2024-02-23T11:53:24;98714.44;;;31.01;23.51
72903;BME280;61047;43.282;28.014;2024-02-23T11:55:50;98716.06;;;31.02;23.10
72903;BME280;61047;43.282;28.014;2024-02-23T11:58:17;98718.03;;;30.72;23.56
72903;BME280;61047;43.282;28.014;2024-02-23T12:00:43;98720.00;;;30.66;22.97
72903;BME280;61047;43.282;28.014;2024-02-23T12:03:09;98725.22;;;30.63;23.84
72903;BME280;61047;43.282;28.014;2024-02-23T12:05:35;98724.88;;;30.69;23.13
72903;BME280;61047;43.282;28.014;2024-02-23T12:08:01;98721.22;;;30.84;22.71
72903;BME280;61047;43.282;28.014;2024-02-23T12:10:27;98726.88;;;30.64;23.03
72903;BME280;61047;43.282;28.014;2024-02-23T12:12:53;98724.78;;;30.56;23.31
72903;BME280;61047;43.282;28.014;2024-02-23T12:15:19;98738.09;;;30.33;23.24
72903;BME280;61047;43.282;28.014;2024-02-23T12:17:48;98731.81;;;29.98;23.67
72903;BME280;61047;43.282;28.014;2024-02-23T12:20:14;98732.69;;;29.94;24.07
72903;BME280;61047;43.282;28.014;2024-02-23T12:22:42;98732.84;;;29.68;24.45
72903;BME280;61047;43.282;28.014;2024-02-23T12:25:08;98721.41;;;29.61;24.04
72903;BME280;61047;43.282;28.014;2024-02-23T12:27:34;98726.59;;;29.68;24.56
72903;BME280;61047;43.282;28.014;2024-02-23T12:29:59;98731.22;;;29.62;24.55
72903;BME280;61047;43.282;28.014;2024-02-23T12:32:25;98732.28;;;29.16;25.23
72903;BME280;61047;43.282;28.014;2024-02-23T12:34:52;98726.63;;;29.57;24.63
72903;BME280;61047;43.282;28.014;2024-02-23T12:37:17;98733.84;;;29.28;25.08
72903;BME280;61047;43.282;28.014;2024-02-23T12:39:43;98733.28;;;29.41;25.00
72903;BME280;61047;43.282;28.014;2024-02-23T12:42:09;98734.81;;;29.57;24.40
72903;BME280;61047;43.282;28.014;2024-02-23T12:44:35;98733.00;;;29.37;24.55
72903;BME280;61047;43.282;28.014;2024-02-23T12:47:00;98733.28;;;29.41;24.92
72903;BME280;61047;43.282;28.014;2024-02-23T12:49:26;98740.00;;;29.54;25.21
72903;BME280;61047;43.282;28.014;2024-02-23T12:51:52;98740.28;;;29.52;24.43